Time;durP1;ratioP1;P1;durP2;ratioP2;P2;SDS_P1;SDS_P2;PMS_P1;PMS_P2;Temp;Humidity;BMP_temperature;BMP_pressure;BME280_temperature;BME280_humidity;BME280_pressure;Samples;Min_cycle;Max_cycle;Signal;HPM_P1;HPM_P2
2022/09/08 04:00:27;;;;;;;21.53;19.40;;;17.20;96.30;;;;;;6091204;23;21498;31
2022/09/08 04:02:53;;;;;;;22.43;20.00;;;17.20;96.30;;;;;;4925810;29;20483;-76
2022/09/08 04:05:19;;;;;;;25.20;20.73;;;17.20;96.30;;;;;;4922355;29;20432;-77
2022/09/08 04:07:44;;;;;;;22.17;19.57;;;17.20;96.30;;;;;;4921130;29;20569;-78
2022/09/08 04:10:12;;;;;;;24.23;20.40;;;17.10;96.30;;;;;;4930658;29;20247;-77
2022/09/08 04:12:38;;;;;;;27.13;20.93;;;17.10;96.30;;;;;;4920837;29;20210;-77
2022/09/08 04:15:05;;;;;;;24.47;21.67;;;17.10;96.30;;;;;;4907163;29;20436;-77
2022/09/08 04:17:31;;;;;;;25.93;20.47;;;17.10;96.30;;;;;;4901816;29;20433;-79
2022/09/08 04:19:56;;;;;;;32.67;21.43;;;17.10;96.30;;;;;;4898326;29;20871;-77
2022/09/08 04:22:23;;;;;;;25.77;22.00;;;17.20;96.30;;;;;;4883811;29;20206;-78
2022/09/08 04:24:49;;;;;;;23.80;21.23;;;17.20;96.30;;;;;;4881543;29;20174;-78
2022/09/08 04:27:18;;;;;;;25.40;22.73;;;17.20;96.30;;;;;;4878613;29;20517;-78
2022/09/08 04:29:43;;;;;;;26.37;21.40;;;17.30;96.30;;;;;;4879537;29;20528;-79
2022/09/08 04:32:09;;;;;;;23.50;20.90;;;17.30;96.30;;;;;;4879734;29;20438;-78
2022/09/08 04:34:36;;;;;;;25.77;22.00;;;17.20;96.30;;;;;;4879592;29;20178;-78
2022/09/08 04:37:03;;;;;;;24.93;22.43;;;17.20;96.30;;;;;;4878835;29;20237;-77
2022/09/08 04:39:28;;;;;;;23.33;20.37;;;17.20;96.30;;;;;;4889660;29;20520;-80
2022/09/08 05:15:33;;;;;;;17.93;16.03;;;17.10;96.30;;;;;;5675728;23;20524;-81
2022/09/08 05:17:59;;;;;;;18.87;15.97;;;17.20;96.30;;;;;;4983117;28;20890;-81
2022/09/08 05:20:24;;;;;;;19.33;15.60;;;17.20;96.30;;;;;;4983111;28;20170;-81
2022/09/08 05:22:50;;;;;;;22.27;17.27;;;17.20;96.30;;;;;;4982917;28;20209;-81
2022/09/08 05:25:16;;;;;;;20.70;17.93;;;17.20;96.30;;;;;;4999018;28;20173;-81
2022/09/08 05:27:41;;;;;;;23.80;19.83;;;17.30;96.30;;;;;;5001658;28;20645;-81
2022/09/08 05:30:08;;;;;;;28.27;20.87;;;17.50;96.30;;;;;;5001303;28;20437;-81
2022/09/08 05:32:34;;;;;;;26.77;20.13;;;17.60;96.30;;;;;;5001305;28;20208;-81
2022/09/08 05:35:00;;;;;;;23.40;20.13;;;17.60;96.30;;;;;;4998330;28;20421;-81
2022/09/08 05:37:28;;;;;;;30.67;21.13;;;17.70;96.30;;;;;;4996402;28;20439;-83
2022/09/08 05:39:54;;;;;;;28.43;21.00;;;17.70;96.30;;;;;;4995921;28;20194;-82
2022/09/08 05:42:20;;;;;;;25.20;21.70;;;17.70;96.30;;;;;;4975579;28;20656;-83
2022/09/08 05:44:45;;;;;;;28.33;22.00;;;17.70;96.30;;;;;;4974828;28;20697;-83
2022/09/08 05:47:11;;;;;;;25.40;21.03;;;17.70;96.30;;;;;;4973433;28;20273;-84
2022/09/08 05:49:36;;;;;;;27.90;20.60;;;17.60;96.30;;;;;;4974012;28;20177;-83
2022/09/08 05:52:02;;;;;;;22.53;19.40;;;17.60;96.30;;;;;;4971419;28;20213;-83
2022/09/08 05:54:27;;;;;;;25.37;20.00;;;17.60;96.30;;;;;;4973949;28;20214;-83
2022/09/08 05:56:53;;;;;;;23.43;18.00;;;17.50;96.30;;;;;;4972010;28;20205;-83
2022/09/08 05:59:18;;;;;;;20.50;17.10;;;17.50;96.30;;;;;;4974063;28;20201;-83
2022/09/08 06:01:44;;;;;;;19.87;17.70;;;17.50;96.30;;;;;;4974168;28;20604;-83
2022/09/08 06:04:10;;;;;;;24.97;18.60;;;17.40;96.30;;;;;;4975877;28;20666;-83
2022/09/08 06:06:36;;;;;;;21.00;18.40;;;17.30;96.30;;;;;;4976303;28;20651;-82
2022/09/08 06:09:03;;;;;;;27.20;18.50;;;17.30;96.30;;;;;;4974234;28;20225;-81
2022/09/08 06:11:31;;;;;;;22.40;18.50;;;17.20;96.30;;;;;;4962827;28;20500;-81
2022/09/08 06:13:57;;;;;;;30.27;19.83;;;17.20;96.30;;;;;;4964681;28;20446;-81
2022/09/08 06:16:23;;;;;;;26.77;20.27;;;17.10;96.30;;;;;;4957346;28;20437;-82
2022/09/08 06:18:50;;;;;;;23.80;19.00;;;17.10;96.30;;;;;;4957327;28;20898;-82
2022/09/08 06:21:24;;;;;;;24.43;20.30;;;17.20;96.30;;;;;;4955629;29;20477;-82
2022/09/08 06:24:02;;;;;;;24.00;21.60;;;17.20;96.30;;;;;;4957670;28;20398;-82
2022/09/08 06:26:43;;;;;;;22.23;18.90;;;17.20;96.30;;;;;;4958674;28;20399;-82
2022/09/08 06:29:21;;;;;;;22.83;19.43;;;17.20;96.30;;;;;;4957152;28;20391;-82
2022/09/08 06:32:01;;;;;;;29.30;21.10;;;17.10;96.30;;;;;;4956693;29;20434;-82
2022/09/08 06:34:34;;;;;;;25.37;19.97;;;17.10;96.30;;;;;;4981464;28;20915;-82
2022/09/08 06:37:04;;;;;;;21.57;18.53;;;17.10;96.30;;;;;;4996654;28;20405;-81
2022/09/08 06:39:48;;;;;;;23.00;17.63;;;17.10;96.30;;;;;;4996607;28;20459;-81
2022/09/08 06:42:19;;;;;;;21.23;16.63;;;17.10;96.30;;;;;;4979154;28;21068;-82
2022/09/08 06:44:47;;;;;;;21.07;14.37;;;17.10;96.30;;;;;;4980508;28;20433;-82
2022/09/08 06:47:33;;;;;;;11.17;9.63;;;17.10;96.30;;;;;;4979372;28;20473;-82
2022/09/08 06:49:59;;;;;;;9.80;7.97;;;17.10;96.30;;;;;;4968290;28;20450;-82
2022/09/08 06:52:46;;;;;;;12.37;7.10;;;17.10;96.30;;;;;;4956665;29;21028;-81
2022/09/08 06:55:20;;;;;;;17.43;8.90;;;17.10;96.30;;;;;;4958058;28;20254;-81
2022/09/08 06:58:08;;;;;;;9.90;7.80;;;17.20;96.30;;;;;;4961898;28;20473;-81
2022/09/08 07:00:48;;;;;;;11.53;8.30;;;17.10;96.30;;;;;;4958654;28;20445;-82
2022/09/08 07:03:48;;;;;;;10.00;7.53;;;17.10;96.30;;;;;;4957371;28;20470;-82
2022/09/08 07:06:17;;;;;;;8.73;6.70;;;17.10;96.30;;;;;;4950692;28;20956;-83
2022/09/08 07:09:02;;;;;;;8.67;7.47;;;17.00;96.30;;;;;;4958863;28;20427;-82
2022/09/08 07:11:38;;;;;;;12.37;10.23;;;17.00;96.30;;;;;;4996304;28;20528;-81
2022/09/08 07:14:35;;;;;;;12.67;7.43;;;17.00;96.30;;;;;;4997935;28;20423;-80
2022/09/08 07:17:07;;;;;;;7.60;6.40;;;17.00;96.30;;;;;;4996655;28;20448;-80
2022/09/08 07:19:39;;;;;;;1.70;1.30;;;16.80;96.30;;;;;;4998326;28;20492;-80
2022/09/08 07:22:38;;;;;;;5.13;1.70;;;15.90;96.30;;;;;;4997236;28;20468;-79
2022/09/08 07:25:09;;;;;;;7.70;2.27;;;15.40;96.30;;;;;;4997614;28;20967;-80
2022/09/08 07:27:37;;;;;;;4.10;1.70;;;15.10;96.30;;;;;;4998059;28;20960;-79
2022/09/08 07:30:05;;;;;;;3.00;1.67;;;14.90;96.30;;;;;;4999198;28;20413;-80
2022/09/08 07:32:34;;;;;;;3.93;1.70;;;14.90;96.30;;;;;;4998727;28;20444;-80
2022/09/08 07:35:16;;;;;;;6.10;1.60;;;14.90;96.30;;;;;;4998737;28;20428;-80
2022/09/08 07:37:45;;;;;;;2.80;1.30;;;14.90;96.30;;;;;;4998405;28;20424;-80
2022/09/08 07:40:21;;;;;;;3.03;1.13;;;14.90;96.30;;;;;;4983203;28;20458;-79
2022/09/08 07:42:50;;;;;;;3.83;1.13;;;15.00;96.30;;;;;;4986464;28;20460;-80
2022/09/08 07:45:16;;;;;;;10.20;1.70;;;15.00;96.30;;;;;;4971335;28;20417;-78
2022/09/08 07:48:00;;;;;;;4.47;1.40;;;15.00;96.30;;;;;;4970882;28;20917;-78
2022/09/08 07:53:45;;;;;;;3.67;1.27;;;15.00;96.30;;;;;;4954823;29;20890;-78
2022/09/08 07:56:20;;;;;;;3.43;1.37;;;15.10;96.30;;;;;;4954433;28;20427;-77
2022/09/08 07:59:01;;;;;;;4.23;1.73;;;15.10;96.30;;;;;;4954332;29;20910;-78
2022/09/08 08:01:42;;;;;;;3.37;1.40;;;15.10;96.30;;;;;;4955626;28;20536;-80
2022/09/08 08:04:27;;;;;;;2.80;1.23;;;15.10;96.30;;;;;;4955767;28;20403;-78
2022/09/08 08:06:55;;;;;;;1.83;1.00;;;15.10;96.30;;;;;;4954383;29;20425;-78
2022/09/08 08:09:34;;;;;;;3.43;1.30;;;15.10;96.30;;;;;;4955354;28;20505;-78
2022/09/08 08:12:29;;;;;;;4.33;1.43;;;15.10;96.30;;;;;;4955334;29;20965;-78
2022/09/08 08:15:17;;;;;;;3.50;1.70;;;15.20;96.30;;;;;;4958078;28;20402;-78
2022/09/08 08:18:09;;;;;;;1.70;1.30;;;15.20;96.30;;;;;;4959430;28;20407;-77
2022/09/08 08:20:47;;;;;;;1.33;1.13;;;15.30;96.30;;;;;;4958156;29;20537;-79
2022/09/08 08:23:50;;;;;;;4.27;1.40;;;15.30;96.30;;;;;;4958299;28;20465;-78
2022/09/08 08:26:54;;;;;;;4.70;1.57;;;15.40;96.30;;;;;;4959038;28;20418;-78
2022/09/08 08:29:42;;;;;;;3.30;1.47;;;15.50;96.30;;;;;;4917424;29;20884;-78
2022/09/08 08:32:14;;;;;;;8.50;2.30;;;15.50;96.30;;;;;;4902505;29;20482;-78
2022/09/08 08:34:51;;;;;;;4.73;1.90;;;15.60;96.30;;;;;;4947741;28;20472;-79
2022/09/08 08:37:21;;;;;;;3.00;1.90;;;15.60;96.30;;;;;;4977391;28;20448;-79
2022/09/08 08:39:52;;;;;;;4.07;2.30;;;15.60;96.30;;;;;;4963554;28;20410;-81
2022/09/08 08:42:55;;;;;;;2.03;1.60;;;15.60;96.30;;;;;;4994597;28;20467;-78
2022/09/08 08:45:40;;;;;;;2.20;1.70;;;15.70;96.30;;;;;;4995645;28;20917;-79
2022/09/08 08:48:42;;;;;;;1.83;1.30;;;15.60;96.30;;;;;;4995793;28;20409;-79
2022/09/08 08:51:50;;;;;;;2.40;1.23;;;15.70;96.30;;;;;;4995326;28;20470;-79
2022/09/08 08:55:05;;;;;;;3.47;1.47;;;15.70;96.30;;;;;;4980625;28;21101;-79
2022/09/08 08:57:54;;;;;;;3.53;1.30;;;15.60;96.30;;;;;;4940633;28;20501;-79
2022/09/08 09:00:22;;;;;;;3.43;1.00;;;15.70;96.30;;;;;;4994884;28;20435;-79
2022/09/08 09:03:08;;;;;;;3.77;1.93;;;15.70;96.30;;;;;;4994829;28;20878;-80
2022/09/08 09:06:11;;;;;;;1.97;1.03;;;15.80;96.30;;;;;;4993793;28;20411;-79
2022/09/08 09:08:59;;;;;;;1.70;1.40;;;15.80;96.30;;;;;;4993643;28;20479;-79
2022/09/08 09:11:41;;;;;;;3.07;1.30;;;15.80;96.30;;;;;;4993700;28;20480;-78
2022/09/08 09:14:28;;;;;;;4.13;1.30;;;15.70;96.30;;;;;;4992240;28;20424;-78
2022/09/08 09:17:28;;;;;;;2.03;1.13;;;15.60;96.30;;;;;;4993057;28;20440;-78
2022/09/08 09:20:19;;;;;;;3.63;1.63;;;15.50;96.30;;;;;;4992946;28;21073;-77
2022/09/08 09:22:52;;;;;;;2.93;1.63;;;15.50;96.30;;;;;;4991697;28;20556;-78
2022/09/08 09:25:33;;;;;;;4.10;1.43;;;15.50;96.30;;;;;;4993089;28;20897;-78
2022/09/08 09:28:10;;;;;;;1.77;1.50;;;15.50;96.30;;;;;;4993004;28;20409;-79
2022/09/08 09:31:16;;;;;;;3.87;2.00;;;15.50;96.30;;;;;;4991614;28;20436;-78
2022/09/08 09:34:27;;;;;;;2.17;1.27;;;15.60;96.30;;;;;;4992990;28;20404;-78
2022/09/08 09:37:19;;;;;;;3.57;1.30;;;15.70;96.30;;;;;;4992920;28;20401;-78
2022/09/08 09:40:07;;;;;;;2.30;1.37;;;15.80;96.30;;;;;;4993020;28;20435;-79
2022/09/08 09:42:50;;;;;;;7.37;2.03;;;15.90;96.30;;;;;;4962803;28;20548;-79
2022/09/08 09:45:52;;;;;;;2.57;1.60;;;15.90;96.30;;;;;;4972056;28;20428;-78
2022/09/08 09:48:49;;;;;;;3.23;1.53;;;16.00;96.30;;;;;;4973341;28;20881;-79
2022/09/08 09:51:43;;;;;;;2.27;1.03;;;16.10;96.30;;;;;;4972024;28;20473;-80
2022/09/08 09:54:54;;;;;;;2.13;1.10;;;16.10;96.30;;;;;;4973434;28;20437;-79
2022/09/08 09:57:52;;;;;;;2.20;1.10;;;16.10;96.30;;;;;;4913647;29;20515;-80
2022/09/08 10:00:25;;;;;;;3.17;1.50;;;16.10;96.30;;;;;;4963068;28;20414;-80
2022/09/08 10:03:09;;;;;;;1.87;1.00;;;16.10;96.30;;;;;;4952780;28;20458;-80
2022/09/08 10:05:56;;;;;;;2.90;1.10;;;16.20;96.30;;;;;;4954392;29;20413;-80
2022/09/08 10:08:59;;;;;;;1.20;0.77;;;16.30;96.30;;;;;;4953195;28;20458;-81
2022/09/08 10:12:11;;;;;;;2.00;0.90;;;16.40;96.30;;;;;;4953379;29;20442;-77
2022/09/08 10:14:55;;;;;;;1.30;0.87;;;16.50;96.30;;;;;;4954977;28;20444;-78
2022/09/08 10:17:40;;;;;;;1.93;0.90;;;16.60;96.30;;;;;;4957594;29;20399;-81
2022/09/08 10:20:30;;;;;;;1.67;0.87;;;16.70;96.30;;;;;;4956250;29;20406;-79
2022/09/08 10:23:29;;;;;;;1.10;0.80;;;16.90;96.30;;;;;;4956358;28;20466;-79
2022/09/08 10:26:01;;;;;;;1.40;0.90;;;17.00;96.30;;;;;;4958012;29;20886;-78
2022/09/08 10:28:40;;;;;;;1.40;1.20;;;17.20;96.30;;;;;;4957337;29;20426;-78
2022/09/08 10:31:38;;;;;;;1.20;0.90;;;17.30;96.30;;;;;;4957749;29;20446;-79
2022/09/08 10:34:22;;;;;;;2.00;1.10;;;17.40;96.30;;;;;;4958629;28;20409;-81
2022/09/08 10:37:30;;;;;;;1.30;1.00;;;17.50;96.30;;;;;;4958239;28;20407;-80
2022/09/08 10:39:55;;;;;;;1.40;1.00;;;17.60;96.30;;;;;;4960697;29;20957;-81
2022/09/08 14:47:02;;;;;;;1.10;0.70;;;18.60;96.30;;;;;;4964301;23;20993;-76
2022/09/08 14:49:51;;;;;;;1.10;0.60;;;18.30;96.30;;;;;;4976520;28;20432;-76
2022/09/08 14:52:32;;;;;;;1.83;0.70;;;18.00;96.30;;;;;;4961242;28;20450;-76
2022/09/08 14:55:25;;;;;;;0.90;0.60;;;18.00;96.30;;;;;;4954663;28;20428;-79
2022/09/08 14:58:11;;;;;;;2.37;0.70;;;17.80;96.30;;;;;;4954183;28;21019;-79
2022/09/08 15:00:39;;;;;;;2.03;0.80;;;17.60;96.30;;;;;;4956291;28;20453;-79
2022/09/08 15:03:18;;;;;;;2.87;0.80;;;17.60;96.30;;;;;;4957158;28;20986;-79
2022/09/08 15:05:47;;;;;;;1.53;0.80;;;17.70;96.30;;;;;;4958806;28;20495;-80
2022/09/08 15:08:34;;;;;;;0.90;0.70;;;17.80;96.30;;;;;;4955961;28;20521;-80
2022/09/08 15:11:34;;;;;;;1.77;0.67;;;17.80;96.30;;;;;;4960396;28;20445;-79
2022/09/08 15:14:12;;;;;;;1.10;0.60;;;17.80;96.30;;;;;;4953701;28;20510;-79
2022/09/08 15:16:41;;;;;;;2.10;0.70;;;17.80;96.30;;;;;;4950219;28;20447;-79
2022/09/08 15:19:15;;;;;;;0.90;0.80;;;17.70;96.30;;;;;;4948980;28;20417;-79
2022/09/08 15:21:52;;;;;;;1.23;0.70;;;17.80;96.30;;;;;;4947224;29;20454;-79
2022/09/08 15:24:51;;;;;;;1.30;0.70;;;17.70;96.30;;;;;;4951880;28;20418;-79
2022/09/08 15:27:22;;;;;;;4.50;0.70;;;17.60;96.30;;;;;;4950194;28;20806;-80
2022/09/08 15:30:12;;;;;;;1.27;0.80;;;17.60;96.30;;;;;;4939247;28;20400;-80
2022/09/08 15:32:56;;;;;;;2.33;0.83;;;17.60;96.30;;;;;;4941517;29;20835;-80
2022/09/08 15:35:34;;;;;;;0.90;0.80;;;17.60;96.30;;;;;;4958215;28;20506;-80
2022/09/08 15:38:10;;;;;;;1.60;0.90;;;17.50;96.30;;;;;;4957849;28;20418;-80
2022/09/08 15:40:36;;;;;;;1.27;0.80;;;17.50;96.30;;;;;;4958900;28;20451;-81
2022/09/08 15:43:06;;;;;;;2.20;0.87;;;17.60;96.30;;;;;;4970545;28;20457;-78
2022/09/08 15:45:56;;;;;;;0.90;0.67;;;17.60;96.30;;;;;;4958577;28;20270;-79
2022/09/08 15:48:29;;;;;;;1.00;0.80;;;17.50;96.30;;;;;;4948171;29;20502;-81
2022/09/08 15:51:06;;;;;;;1.53;0.80;;;17.40;96.30;;;;;;4963579;28;20470;-80
2022/09/08 15:53:45;;;;;;;1.00;0.70;;;17.50;96.30;;;;;;4961102;28;20426;-81
2022/09/08 15:56:30;;;;;;;1.13;0.90;;;17.60;96.30;;;;;;4938315;29;20495;-80
2022/09/08 15:59:32;;;;;;;1.13;0.80;;;17.60;96.30;;;;;;4938909;29;20527;-81
2022/09/08 16:02:04;;;;;;;1.00;0.90;;;17.60;96.30;;;;;;4937948;29;20549;-79
2022/09/08 16:05:02;;;;;;;3.00;1.30;;;17.60;96.30;;;;;;4943520;29;20983;-77
2022/09/08 16:07:53;;;;;;;1.00;0.60;;;17.80;96.30;;;;;;4944305;28;20759;-76
2022/09/08 16:10:21;;;;;;;1.30;0.80;;;18.00;96.30;;;;;;4944779;29;20440;-76
2022/09/08 16:13:14;;;;;;;0.93;0.70;;;18.20;96.30;;;;;;4942790;28;20423;-76
2022/09/08 16:15:50;;;;;;;1.67;0.90;;;18.40;96.30;;;;;;4943186;29;20412;-77
2022/09/08 16:18:40;;;;;;;2.67;0.70;;;18.40;96.30;;;;;;4975380;28;20425;-78
2022/09/08 16:21:18;;;;;;;1.57;0.80;;;18.60;96.30;;;;;;4984065;28;20433;-80
2022/09/08 16:23:50;;;;;;;1.63;0.70;;;18.90;96.30;;;;;;4966193;28;20414;-79
2022/09/08 16:26:49;;;;;;;1.20;0.80;;;19.00;96.30;;;;;;4975564;28;20789;-78
2022/09/08 16:29:26;;;;;;;1.10;0.73;;;19.10;96.30;;;;;;4957602;28;20442;-79
2022/09/08 16:32:01;;;;;;;0.90;0.70;;;19.10;96.30;;;;;;4943949;28;21054;-77
2022/09/08 16:34:27;;;;;;;3.40;0.70;;;19.10;96.30;;;;;;4939576;29;20398;-78
2022/09/08 16:37:09;;;;;;;3.20;0.90;;;19.10;96.30;;;;;;4964155;28;20414;-78
2022/09/08 16:39:35;;;;;;;1.83;0.80;;;19.30;96.30;;;;;;4967179;28;20517;-80
2022/09/08 16:42:11;;;;;;;1.40;0.70;;;19.20;96.30;;;;;;4950010;28;20463;-80
2022/09/08 16:44:54;;;;;;;2.13;0.90;;;19.20;96.30;;;;;;4942783;29;20419;-80
2022/09/08 16:47:22;;;;;;;1.00;0.80;;;19.10;96.30;;;;;;4955870;29;20496;-80
2022/09/08 16:50:03;;;;;;;4.50;0.77;;;18.90;96.30;;;;;;4950865;28;21030;-80
2022/09/08 17:19:13;;;;;;;1.87;0.80;;;17.30;96.30;;;;;;4919413;29;20430;-80
2022/09/08 17:21:44;;;;;;;3.20;0.97;;;17.20;96.30;;;;;;4915660;29;20483;-80
2022/09/08 17:24:16;;;;;;;1.00;0.80;;;17.20;96.30;;;;;;4915936;29;20420;-80
2022/09/08 17:27:13;;;;;;;4.63;1.00;;;17.00;96.30;;;;;;4937450;29;20870;-80
2022/09/08 17:30:07;;;;;;;3.10;1.40;;;16.80;96.30;;;;;;4939388;29;20418;-80
2022/09/08 17:33:04;;;;;;;3.40;1.80;;;16.60;96.30;;;;;;4936076;29;20439;-81
2022/09/08 17:35:56;;;;;;;5.97;2.00;;;16.40;96.30;;;;;;4916243;29;20415;-80
2022/09/08 17:38:35;;;;;;;9.30;6.27;;;16.20;96.30;;;;;;4916331;29;20908;-81
2022/09/08 17:41:45;;;;;;;4.17;2.30;;;15.90;96.30;;;;;;4936936;29;20523;-81
2022/09/08 17:44:30;;;;;;;7.60;3.93;;;15.80;96.30;;;;;;4939221;29;20978;-81
2022/09/08 17:47:03;;;;;;;6.67;2.90;;;15.70;96.30;;;;;;4927531;29;20395;-81
2022/09/08 17:50:07;;;;;;;21.80;14.97;;;15.60;96.30;;;;;;4926035;29;20931;-81
2022/09/08 17:52:45;;;;;;;17.57;12.73;;;15.50;96.30;;;;;;4926089;29;20776;-81
2022/09/08 17:55:25;;;;;;;8.70;7.80;;;15.40;96.30;;;;;;4934841;28;20427;-82
2022/09/08 17:57:58;;;;;;;8.53;7.50;;;15.30;96.30;;;;;;4929115;29;20419;-81
2022/09/08 18:00:24;;;;;;;2.03;1.40;;;15.10;96.30;;;;;;4936125;29;20975;-81
2022/09/08 18:03:07;;;;;;;4.90;1.80;;;15.10;96.30;;;;;;4922148;29;20455;-81
2022/09/08 18:05:34;;;;;;;2.10;1.80;;;15.20;96.30;;;;;;4917014;29;20176;-81
2022/09/08 18:08:21;;;;;;;2.50;1.70;;;15.10;96.30;;;;;;4915682;29;20436;-81
2022/09/08 18:11:32;;;;;;;9.83;8.80;;;15.00;96.30;;;;;;4954276;28;20434;-81
2022/09/08 18:14:12;;;;;;;6.43;5.50;;;15.00;96.30;;;;;;4956871;28;20434;-81
2022/09/08 18:16:40;;;;;;;4.67;4.27;;;14.80;96.30;;;;;;4956921;28;20734;-81
2022/09/08 18:19:30;;;;;;;6.20;3.10;;;14.70;96.30;;;;;;4956257;28;20410;-81
2022/09/08 18:22:37;;;;;;;9.33;4.10;;;14.50;96.30;;;;;;4971432;28;20547;-81
2022/09/08 18:25:19;;;;;;;2.40;2.20;;;14.40;96.30;;;;;;4923257;28;20422;-81
2022/09/08 18:28:12;;;;;;;2.67;2.47;;;14.30;96.30;;;;;;4956039;28;20410;-81
2022/09/08 18:30:38;;;;;;;1.63;1.53;;;14.20;96.30;;;;;;4970276;28;20446;-81
2022/09/08 18:33:27;;;;;;;7.33;3.83;;;14.00;96.30;;;;;;4955703;28;20418;-81
2022/09/08 18:36:05;;;;;;;5.53;4.90;;;14.00;96.30;;;;;;4956794;28;20933;-81
2022/09/08 18:38:40;;;;;;;608.73;512.00;;;14.00;96.30;;;;;;4974093;28;20438;-81
2022/09/08 18:41:13;;;;;;;108.40;91.77;;;14.00;96.30;;;;;;4950651;28;20850;-81
2022/09/08 18:44:17;;;;;;;26.33;23.73;;;14.00;96.30;;;;;;4938852;28;20983;-81
2022/09/08 18:47:08;;;;;;;8.03;7.40;;;14.10;96.30;;;;;;4938878;29;20418;-81
2022/09/08 18:49:39;;;;;;;2.40;2.20;;;14.00;96.30;;;;;;4938363;29;20408;-82
2022/09/08 18:52:17;;;;;;;3.47;2.43;;;13.90;96.30;;;;;;4939547;29;20501;-80
2022/09/08 18:55:00;;;;;;;3.90;3.50;;;13.90;96.30;;;;;;4939602;29;20419;-80
2022/09/08 18:57:31;;;;;;;2.60;1.77;;;14.00;96.30;;;;;;4939118;29;20404;-80
2022/09/08 19:00:20;;;;;;;1.47;1.20;;;14.00;96.30;;;;;;4939861;29;20418;-80
2022/09/08 19:02:49;;;;;;;2.43;2.23;;;14.00;96.30;;;;;;4933140;29;20546;-80
2022/09/08 19:05:26;;;;;;;2.80;1.80;;;14.10;96.30;;;;;;4939573;29;20422;-81
2022/09/08 19:08:15;;;;;;;5.40;1.30;;;14.00;96.30;;;;;;4938275;29;20561;-81
2022/09/08 19:10:43;;;;;;;4.60;2.40;;;14.10;96.30;;;;;;4963650;28;20454;-80
2022/09/08 19:13:32;;;;;;;94.57;76.30;;;14.20;96.30;;;;;;4942923;29;20434;-80
2022/09/08 19:16:12;;;;;;;215.33;150.33;;;14.30;96.30;;;;;;4941195;28;20939;-81
2022/09/08 19:18:44;;;;;;;265.07;198.93;;;14.50;96.30;;;;;;4939479;29;20458;-79
2022/09/08 19:21:13;;;;;;;61.83;55.23;;;14.60;96.30;;;;;;4938598;29;20473;-80
2022/09/08 19:23:40;;;;;;;62.47;56.07;;;14.70;96.30;;;;;;4940221;29;20494;-81
2022/09/08 19:26:15;;;;;;;17.47;15.97;;;14.70;96.30;;;;;;4940758;29;20415;-81
2022/09/08 19:28:47;;;;;;;2.37;2.17;;;14.70;96.30;;;;;;4939218;29;20415;-80
2022/09/08 19:31:36;;;;;;;1.70;1.57;;;14.60;96.30;;;;;;4939961;29;20783;-81
2022/09/08 19:34:39;;;;;;;2.37;1.20;;;14.50;96.30;;;;;;4938582;29;20455;-81
2022/09/08 19:37:09;;;;;;;2.07;1.60;;;14.30;96.30;;;;;;4938679;29;20419;-81
2022/09/08 19:39:40;;;;;;;3.00;1.40;;;14.30;96.30;;;;;;4940035;29;20519;-81
2022/09/08 19:42:17;;;;;;;4.20;1.00;;;14.20;96.30;;;;;;4956458;28;20454;-81
2022/09/08 19:45:30;;;;;;;2.40;1.10;;;14.20;96.30;;;;;;4958026;29;20465;-81
2022/09/08 19:48:10;;;;;;;1.80;1.10;;;14.20;96.30;;;;;;4932499;28;20418;-81
2022/09/08 19:51:08;;;;;;;1.20;1.10;;;14.10;96.30;;;;;;4957961;28;20434;-81
2022/09/08 19:53:42;;;;;;;1.33;1.10;;;14.10;96.30;;;;;;4927074;28;20423;-81
2022/09/08 19:56:23;;;;;;;2.30;1.10;;;14.20;96.30;;;;;;4974456;28;20415;-81
2022/09/08 19:59:15;;;;;;;2.17;1.00;;;14.30;96.30;;;;;;4959850;28;20525;-81
2022/09/08 20:01:52;;;;;;;1.17;0.93;;;14.30;96.30;;;;;;4959230;28;20907;-81
2022/09/08 20:04:40;;;;;;;4.63;1.10;;;14.20;96.30;;;;;;4938020;28;20426;-79
2022/09/08 20:07:24;;;;;;;3.37;1.10;;;14.30;96.30;;;;;;4937398;29;20423;-80
2022/09/08 20:10:11;;;;;;;2.33;1.27;;;14.20;96.30;;;;;;4939941;29;20416;-81
2022/09/08 20:12:57;;;;;;;1.33;1.23;;;14.20;96.30;;;;;;4939426;29;20476;-80
2022/09/08 20:15:49;;;;;;;2.43;1.00;;;14.20;96.30;;;;;;4938531;28;20412;-80
2022/09/08 20:18:14;;;;;;;4.43;1.30;;;14.20;96.30;;;;;;4938455;29;20411;-81
2022/09/08 20:21:08;;;;;;;1.50;0.87;;;14.20;96.30;;;;;;4939668;29;20824;-81
2022/09/08 20:23:54;;;;;;;2.50;1.13;;;14.20;96.30;;;;;;4939675;29;20203;-81
2022/09/08 20:26:42;;;;;;;1.90;1.17;;;14.20;96.30;;;;;;4938958;29;20458;-80
2022/09/08 20:29:38;;;;;;;5.37;1.10;;;14.10;96.30;;;;;;4939064;29;20424;-80
2022/09/08 20:32:42;;;;;;;3.80;1.20;;;14.10;96.30;;;;;;4939449;29;20459;-80
2022/09/08 20:35:29;;;;;;;4.17;1.63;;;14.00;96.30;;;;;;4931896;29;21006;-81
2022/09/08 20:38:20;;;;;;;2.93;1.30;;;14.00;96.30;;;;;;4937038;29;20494;-80
2022/09/08 20:40:59;;;;;;;1.57;0.90;;;14.00;96.30;;;;;;4944522;28;20446;-81
2022/09/08 20:43:32;;;;;;;1.90;1.10;;;14.00;96.30;;;;;;4957818;28;20454;-80
2022/09/08 20:46:08;;;;;;;1.10;0.80;;;14.00;96.30;;;;;;4958171;28;20421;-80
2022/09/08 20:49:05;;;;;;;1.20;1.00;;;14.00;96.30;;;;;;4955737;28;20422;-81
2022/09/08 20:52:01;;;;;;;2.43;0.90;;;14.00;96.30;;;;;;4972764;28;20442;-80
2022/09/08 20:54:59;;;;;;;8.13;1.10;;;14.00;96.30;;;;;;4957687;28;20461;-80
2022/09/08 20:57:51;;;;;;;1.63;1.10;;;13.90;96.30;;;;;;4957517;28;20399;-80
2022/09/08 21:00:19;;;;;;;2.57;0.90;;;13.90;96.30;;;;;;4970164;28;20414;-80
2022/09/08 21:02:46;;;;;;;1.40;1.03;;;13.90;96.30;;;;;;4970720;28;20466;-79
2022/09/08 21:05:33;;;;;;;2.13;1.00;;;13.80;96.30;;;;;;4970608;28;20426;-81
2022/09/08 21:08:15;;;;;;;1.73;0.87;;;13.70;96.30;;;;;;4972728;28;20426;-81
2022/09/08 21:11:02;;;;;;;2.33;0.70;;;13.50;96.30;;;;;;4941014;28;20812;-81
2022/09/08 21:13:32;;;;;;;1.37;0.90;;;13.30;96.30;;;;;;4939091;29;20404;-81
2022/09/08 21:16:11;;;;;;;1.73;1.00;;;13.20;96.30;;;;;;4937300;28;20896;-81
2022/09/08 21:19:01;;;;;;;5.80;0.93;;;13.30;96.30;;;;;;4937925;29;20490;-81
2022/09/08 21:21:40;;;;;;;1.30;0.80;;;13.30;96.30;;;;;;4937285;29;20467;-81
2022/09/08 21:24:28;;;;;;;5.17;1.00;;;13.20;96.30;;;;;;4937431;29;20490;-81
2022/09/08 21:27:12;;;;;;;3.90;1.00;;;13.30;96.30;;;;;;4937298;29;20407;-81
2022/09/08 21:30:00;;;;;;;0.93;0.80;;;13.40;96.30;;;;;;4931291;29;20403;-79
2022/09/08 21:32:47;;;;;;;1.57;0.93;;;13.30;96.30;;;;;;4936043;29;20466;-79
2022/09/08 21:35:15;;;;;;;1.40;0.90;;;13.30;96.30;;;;;;4937926;29;20453;-78
2022/09/08 21:37:50;;;;;;;4.90;0.87;;;13.10;96.30;;;;;;4937667;29;20414;-77
2022/09/08 21:40:49;;;;;;;3.63;1.00;;;13.00;96.30;;;;;;4938852;28;20407;-79
2022/09/08 21:43:18;;;;;;;3.43;1.20;;;13.00;96.30;;;;;;4955728;29;20462;-77
2022/09/08 21:45:55;;;;;;;1.60;0.80;;;13.00;96.30;;;;;;4972678;28;21130;-77
2022/09/08 21:48:23;;;;;;;1.43;0.90;;;12.90;96.30;;;;;;4972093;28;20450;-78
2022/09/08 21:50:57;;;;;;;2.03;0.90;;;12.80;96.30;;;;;;4972256;28;20847;-78
2022/09/08 21:53:47;;;;;;;2.80;1.00;;;12.80;96.30;;;;;;4972583;28;20449;-77
2022/09/08 21:56:19;;;;;;;1.03;0.90;;;12.70;96.30;;;;;;4972303;28;20417;-78
2022/09/08 21:58:54;;;;;;;3.50;1.47;;;12.70;96.30;;;;;;4972084;28;20423;-79
2022/09/08 22:01:37;;;;;;;1.00;0.90;;;12.70;96.30;;;;;;4957385;28;20508;-78
2022/09/08 22:04:20;;;;;;;1.87;0.90;;;12.90;96.30;;;;;;4957202;28;20940;-77
2022/09/08 22:06:53;;;;;;;2.33;1.07;;;13.20;96.30;;;;;;4956782;28;20414;-78
2022/09/08 22:09:20;;;;;;;3.53;0.80;;;13.30;96.30;;;;;;4955958;29;20418;-77
2022/09/08 22:12:09;;;;;;;5.30;1.20;;;13.40;96.30;;;;;;4959612;28;20513;-78
2022/09/08 22:14:43;;;;;;;2.40;1.27;;;13.50;96.30;;;;;;4975823;28;20948;-78
2022/09/08 22:17:25;;;;;;;3.30;1.00;;;13.70;96.30;;;;;;4975978;28;20402;-78
2022/09/08 22:19:54;;;;;;;0.90;0.60;;;13.70;96.30;;;;;;4961150;28;20401;-78
2022/09/08 22:22:30;;;;;;;6.50;0.90;;;13.70;96.30;;;;;;4959586;28;20477;-78
2022/09/08 22:25:03;;;;;;;2.57;0.90;;;13.80;96.30;;;;;;4959376;29;20461;-80
2022/09/08 22:27:49;;;;;;;1.73;0.80;;;13.70;96.30;;;;;;4960785;28;20422;-77
2022/09/08 22:30:26;;;;;;;1.30;0.77;;;13.70;96.30;;;;;;4975659;28;20774;-78
2022/09/08 22:33:16;;;;;;;5.73;1.00;;;13.70;96.30;;;;;;4975841;28;20457;-79
2022/09/08 22:36:07;;;;;;;1.63;0.97;;;13.70;96.30;;;;;;4960791;28;20410;-79
2022/09/08 22:39:10;;;;;;;1.63;1.00;;;13.70;96.30;;;;;;4975716;28;20791;-77
2022/09/08 22:41:49;;;;;;;1.60;0.70;;;13.80;96.30;;;;;;4962803;28;20508;-78
2022/09/08 22:44:29;;;;;;;2.10;0.90;;;13.70;96.30;;;;;;4940651;29;20430;-77
2022/09/08 22:47:16;;;;;;;2.20;0.80;;;13.60;96.30;;;;;;4962696;29;20418;-81
2022/09/08 22:49:56;;;;;;;2.20;0.80;;;13.60;96.30;;;;;;4945639;29;20423;-81
2022/09/08 22:57:38;;;;;;;1.73;0.90;;;13.60;96.30;;;;;;5245165;23;20509;-81
2022/09/08 23:00:21;;;;;;;4.10;1.07;;;13.60;96.30;;;;;;4959533;28;20941;-81
2022/09/08 23:03:15;;;;;;;1.53;0.80;;;13.50;96.30;;;;;;4940648;29;20482;-81